Terminal Aerodrome Forecast
Issued by NWS Greer, SC

Home | Current Version | Previous Version | Text Only | Print | Product List | Glossary On
Versions: 1 2 3 4 5 6 7 8 9 10 11 12 13 14 15 16 17 18 19 20 21 22 23 24 25
000
FTUS42 KGSP 060537
TAFCLT
TAF
KCLT 060537Z 0606/0706 31006KT P6SM VCSH SCT025 OVC045
      TEMPO 0606/0610 6SM -SHRA BR OVC035
     FM061400 34010KT P6SM FEW060 SCT250
     FM061600 34013G20KT P6SM BKN045
     FM070000 33006KT P6SM BKN150=

USA.gov is the U.S. government's official web portal to all federal, state and local government web resources and services.